createdAt,value
2018-04-30T00:00:58.343Z,10.80
2018-04-30T00:02:04.319Z,10.85
2018-04-30T00:03:10.571Z,11.18
2018-04-30T00:04:16.891Z,11.90
2018-04-30T00:05:22.882Z,11.00
2018-04-30T00:06:32.787Z,11.82
2018-04-30T00:07:38.975Z,11.82
2018-04-30T00:08:46.147Z,11.02
2018-04-30T00:09:52.439Z,10.98
2018-04-30T00:10:58.755Z,11.75
2018-04-30T00:12:04.671Z,11.68
2018-04-30T00:13:10.948Z,11.65
2018-04-30T00:14:17.268Z,12.10
2018-04-30T00:15:23.583Z,12.15
2018-04-30T00:16:29.891Z,11.77
2018-04-30T00:17:36.219Z,12.80
2018-04-30T00:18:43.248Z,11.55
2018-04-30T00:19:49.543Z,11.88
2018-04-30T00:20:55.902Z,10.80
2018-04-30T00:22:02.164Z,12.37
2018-04-30T00:23:08.477Z,11.65
2018-04-30T00:24:14.743Z,12.85
2018-04-30T00:25:21.038Z,11.95
2018-04-30T00:26:28.467Z,12.10
2018-04-30T00:27:34.759Z,12.60
2018-04-30T00:28:41.088Z,12.18
2018-04-30T00:29:47.367Z,12.70
2018-04-30T00:30:53.708Z,13.00
2018-04-30T00:32:00.024Z,12.70
2018-04-30T00:33:06.315Z,12.77
2018-04-30T00:34:12.683Z,12.80
2018-04-30T00:35:19.454Z,12.75
2018-04-30T00:36:25.771Z,11.18
2018-04-30T00:37:32.069Z,13.48
2018-04-30T00:38:39.106Z,13.27
2018-04-30T00:39:45.719Z,13.02
2018-04-30T00:40:52.059Z,13.25
2018-04-30T00:41:58.314Z,13.93
2018-04-30T00:43:04.551Z,13.15
2018-04-30T00:44:19.928Z,13.60
2018-04-30T00:45:26.183Z,13.23
2018-04-30T00:46:32.397Z,13.30
2018-04-30T00:47:38.675Z,13.88
2018-04-30T00:48:44.978Z,14.80
2018-04-30T00:49:52.753Z,14.13
2018-04-30T00:50:59.123Z,13.75
2018-04-30T00:52:05.370Z,14.48
2018-04-30T00:53:11.568Z,14.95
2018-04-30T00:54:29.236Z,13.52
2018-04-30T00:55:35.307Z,14.77
2018-04-30T00:56:41.632Z,13.68
2018-04-30T00:57:47.967Z,15.40
2018-04-30T00:58:54.209Z,13.75
2018-04-30T01:00:00.717Z,15.40
2018-04-30T01:01:06.719Z,14.55
2018-04-30T01:02:13.478Z,14.15
2018-04-30T01:03:20.267Z,13.88
2018-04-30T01:04:26.760Z,14.38
2018-04-30T01:05:33.303Z,15.23
2018-04-30T01:06:39.642Z,14.75
2018-04-30T01:07:46.328Z,14.60
2018-04-30T01:08:54.310Z,15.30
2018-04-30T01:10:00.598Z,15.02
2018-04-30T01:11:09.683Z,16.25
2018-04-30T01:12:19.152Z,14.18
2018-04-30T01:13:25.443Z,14.13
2018-04-30T01:14:32.491Z,16.23
2018-04-30T01:15:38.964Z,15.57
2018-04-30T01:16:44.563Z,16.17
2018-04-30T01:17:50.973Z,16.20
2018-04-30T01:18:57.223Z,14.45
2018-04-30T01:20:04.049Z,15.82
2018-04-30T01:21:11.011Z,17.02
2018-04-30T01:22:17.514Z,14.98
2018-04-30T01:23:24.035Z,15.05
2018-04-30T01:24:30.054Z,16.65
2018-04-30T01:25:36.318Z,15.93
2018-04-30T01:26:42.343Z,16.77
2018-04-30T01:27:48.642Z,16.77
2018-04-30T01:28:55.068Z,16.12
2018-04-30T01:30:05.264Z,16.48
2018-04-30T01:31:16.835Z,16.52
2018-04-30T01:32:23.120Z,16.58
2018-04-30T01:33:29.109Z,16.27
2018-04-30T01:34:35.418Z,16.45
2018-04-30T01:35:42.251Z,16.23
2018-04-30T01:36:49.206Z,17.30
2018-04-30T01:37:55.142Z,18.37
2018-04-30T01:39:01.502Z,17.27
2018-04-30T01:40:09.050Z,17.37
2018-04-30T01:41:15.579Z,19.77
2018-04-30T01:42:21.857Z,17.85
2018-04-30T01:43:28.179Z,16.35
2018-04-30T01:44:34.357Z,17.55
2018-04-30T01:45:40.566Z,17.08
2018-04-30T01:46:46.770Z,17.90
2018-04-30T01:47:52.994Z,17.05
2018-04-30T01:48:59.022Z,17.50
2018-04-30T01:50:05.094Z,17.80
2018-04-30T01:51:13.242Z,18.50
2018-04-30T01:52:19.485Z,18.50
2018-04-30T01:53:25.668Z,18.20
2018-04-30T01:54:31.779Z,19.50
2018-04-30T01:55:38.697Z,19.00
2018-04-30T01:56:44.759Z,18.12
2018-04-30T01:57:51.040Z,18.23
2018-04-30T01:58:57.388Z,20.05
2018-04-30T02:00:03.276Z,19.85
2018-04-30T02:01:08.962Z,18.52
2018-04-30T02:02:14.946Z,20.30
2018-04-30T02:03:21.163Z,19.45
2018-04-30T02:04:27.348Z,20.70
2018-04-30T02:05:33.617Z,19.77
2018-04-30T02:06:39.890Z,19.25
2018-04-30T02:07:46.937Z,18.67
2018-04-30T02:08:53.215Z,20.12
2018-04-30T02:09:59.435Z,16.65
2018-04-30T02:11:05.311Z,18.10
2018-04-30T02:12:11.925Z,17.45
2018-04-30T02:13:17.748Z,16.52
2018-04-30T02:14:23.969Z,18.48
2018-04-30T02:15:30.165Z,17.98
2018-04-30T02:16:36.366Z,16.95
2018-04-30T02:17:42.723Z,16.30
2018-04-30T02:18:49.038Z,16.50
2018-04-30T02:19:55.916Z,17.58
2018-04-30T02:21:02.092Z,16.80
2018-04-30T02:22:08.054Z,17.08
2018-04-30T02:23:14.270Z,17.00
2018-04-30T02:24:20.490Z,17.15
2018-04-30T02:25:26.776Z,18.98
2018-04-30T02:26:32.987Z,16.75
2018-04-30T02:27:40.609Z,18.50
2018-04-30T02:28:47.559Z,17.15
2018-04-30T02:29:53.815Z,19.27
2018-04-30T02:31:00.106Z,17.35
2018-04-30T02:32:06.633Z,18.48
2018-04-30T02:33:12.897Z,18.20
2018-04-30T02:34:19.216Z,19.05
2018-04-30T02:35:25.439Z,17.65
2018-04-30T02:36:31.751Z,17.52
2018-04-30T02:37:37.970Z,17.52
2018-04-30T02:38:44.381Z,18.05
2018-04-30T02:39:50.923Z,18.50
2018-04-30T02:40:56.862Z,18.42
2018-04-30T02:42:03.104Z,16.65
2018-04-30T02:43:16.952Z,18.80
2018-04-30T02:44:23.707Z,18.90
2018-04-30T02:45:29.912Z,18.15
2018-04-30T02:46:37.099Z,18.12
2018-04-30T02:47:43.035Z,19.37
2018-04-30T02:48:49.292Z,17.60
2018-04-30T02:49:55.595Z,18.90
2018-04-30T02:51:01.897Z,18.00
2018-04-30T02:52:08.209Z,17.35
2018-04-30T02:53:14.565Z,18.73
2018-04-30T02:54:20.813Z,18.50
2018-04-30T02:55:27.048Z,19.08
2018-04-30T02:56:33.508Z,20.88
2018-04-30T02:57:40.502Z,21.15
2018-04-30T02:58:46.471Z,20.40
2018-04-30T02:59:53.641Z,18.75
2018-04-30T03:00:59.562Z,20.23
2018-04-30T03:02:05.443Z,20.65
2018-04-30T03:03:11.748Z,20.70
2018-04-30T03:04:18.456Z,20.37
2018-04-30T03:05:24.679Z,20.30
2018-04-30T03:06:30.855Z,20.10
2018-04-30T03:07:37.116Z,20.80
2018-04-30T03:08:43.375Z,20.48
2018-04-30T03:09:49.637Z,19.48
2018-04-30T03:10:55.673Z,20.62
2018-04-30T03:12:02.032Z,20.50
2018-04-30T03:13:09.180Z,19.62
2018-04-30T03:14:15.370Z,20.10
2018-04-30T03:15:21.236Z,18.90
2018-04-30T03:16:27.458Z,20.05
2018-04-30T03:17:33.484Z,19.83
2018-04-30T03:18:39.801Z,19.58
2018-04-30T03:19:46.091Z,17.98
2018-04-30T03:20:52.423Z,18.83
2018-04-30T03:21:58.709Z,19.48
2018-04-30T03:23:05.062Z,20.42
2018-04-30T03:24:11.043Z,19.85
2018-04-30T03:25:17.640Z,18.65
2018-04-30T03:26:23.905Z,17.75
2018-04-30T03:27:31.059Z,19.17
2018-04-30T03:28:37.395Z,17.58
2018-04-30T03:29:43.611Z,19.02
2018-04-30T03:30:49.866Z,20.55
2018-04-30T03:31:56.130Z,19.37
2018-04-30T03:33:02.425Z,20.23
2018-04-30T03:34:09.287Z,20.00
2018-04-30T03:35:16.371Z,17.75
2018-04-30T03:36:23.373Z,17.45
2018-04-30T03:37:29.672Z,18.35
2018-04-30T03:38:36.495Z,18.92
2018-04-30T03:39:42.693Z,19.40
2018-04-30T03:40:48.995Z,18.98
2018-04-30T03:41:57.887Z,19.45
2018-04-30T03:43:04.122Z,21.23
2018-04-30T03:44:10.853Z,21.90
2018-04-30T03:45:17.128Z,22.85
2018-04-30T03:46:23.447Z,24.23
2018-04-30T03:47:29.725Z,24.95
2018-04-30T03:48:35.896Z,23.52
2018-04-30T03:49:42.220Z,23.75
2018-04-30T03:50:49.450Z,25.30
2018-04-30T03:51:56.218Z,25.62
2018-04-30T03:53:02.512Z,27.15
2018-04-30T03:54:08.752Z,26.80
2018-04-30T03:55:15.092Z,28.10
2018-04-30T03:56:21.359Z,28.12
2018-04-30T03:57:32.875Z,26.92
2018-04-30T03:58:39.191Z,26.65
2018-04-30T03:59:45.421Z,26.00
2018-04-30T04:01:02.587Z,26.60
2018-04-30T04:02:19.554Z,26.05
2018-04-30T04:03:37.276Z,26.15
2018-04-30T04:06:37.152Z,27.92
2018-04-30T04:07:43.523Z,28.45
2018-04-30T04:08:50.314Z,27.60
2018-04-30T04:09:56.647Z,25.80
2018-04-30T04:11:02.967Z,25.42
2018-04-30T04:12:09.893Z,25.10
2018-04-30T04:13:16.303Z,23.98
2018-04-30T04:14:22.623Z,22.55
2018-04-30T04:15:28.981Z,24.23
2018-04-30T04:16:35.239Z,21.75
2018-04-30T04:17:41.543Z,22.00
2018-04-30T04:18:47.795Z,22.17
2018-04-30T04:19:54.231Z,22.55
2018-04-30T04:21:01.069Z,24.20
2018-04-30T04:22:08.643Z,24.35
2018-04-30T04:23:14.955Z,24.23
2018-04-30T04:24:20.955Z,19.85
2018-04-30T04:25:27.163Z,21.42
2018-04-30T04:26:34.357Z,22.15
2018-04-30T04:27:40.587Z,20.40
2018-04-30T04:28:46.848Z,21.40
2018-04-30T04:29:53.474Z,20.85
2018-04-30T04:30:59.735Z,21.98
2018-04-30T04:32:05.641Z,20.90
2018-04-30T04:33:11.981Z,19.55
2018-04-30T04:34:18.307Z,18.75
2018-04-30T04:35:25.521Z,20.33
2018-04-30T04:36:32.358Z,21.55
2018-04-30T04:37:40.469Z,21.52
2018-04-30T04:38:46.663Z,21.17
2018-04-30T04:39:53.156Z,20.90
2018-04-30T04:41:02.445Z,21.17
2018-04-30T04:42:08.363Z,19.73
2018-04-30T04:43:14.869Z,17.95
2018-04-30T04:44:21.890Z,19.27
2018-04-30T04:45:29.091Z,20.17
2018-04-30T04:46:37.204Z,20.75
2018-04-30T04:47:44.394Z,18.40
2018-04-30T04:48:51.617Z,19.08
2018-04-30T04:49:59.733Z,18.95
2018-04-30T04:51:06.825Z,20.52
2018-04-30T04:52:14.056Z,17.73
2018-04-30T04:53:20.878Z,20.67
2018-04-30T04:54:27.835Z,21.55
2018-04-30T04:55:34.529Z,21.70
2018-04-30T04:56:41.347Z,21.25
2018-04-30T04:57:48.323Z,22.20
2018-04-30T04:58:55.064Z,21.98
2018-04-30T05:00:01.311Z,22.10
2018-04-30T05:01:08.672Z,21.23
2018-04-30T05:02:16.625Z,22.52
2018-04-30T05:03:23.163Z,21.95
2018-04-30T05:04:29.712Z,23.83
2018-04-30T05:05:36.538Z,21.42
2018-04-30T05:06:43.378Z,20.83
2018-04-30T05:07:50.951Z,20.60
2018-04-30T05:08:57.380Z,21.83
2018-04-30T05:10:04.265Z,19.48
2018-04-30T05:11:10.707Z,21.45
2018-04-30T05:12:17.831Z,23.05
2018-04-30T05:13:24.696Z,20.65
2018-04-30T05:14:31.212Z,23.35
2018-04-30T05:15:37.872Z,20.60
2018-04-30T05:16:45.117Z,21.73
2018-04-30T05:17:52.739Z,21.95
2018-04-30T05:18:59.873Z,21.33
2018-04-30T05:20:06.790Z,21.45
2018-04-30T05:21:14.371Z,21.85
2018-04-30T05:22:21.082Z,21.23
2018-04-30T05:23:29.115Z,22.37
2018-04-30T05:24:36.004Z,21.55
2018-04-30T05:25:44.291Z,22.23
2018-04-30T05:26:50.725Z,21.80
2018-04-30T05:27:57.348Z,22.60
2018-04-30T05:29:03.706Z,21.50
2018-04-30T05:30:10.030Z,21.20
2018-04-30T05:31:17.160Z,20.98
2018-04-30T05:32:23.419Z,21.58
2018-04-30T05:33:30.553Z,22.25
2018-04-30T05:34:36.794Z,22.65
2018-04-30T05:35:42.786Z,21.83
2018-04-30T05:36:48.955Z,20.88
2018-04-30T05:37:55.388Z,24.10
2018-04-30T05:39:01.567Z,22.17
2018-04-30T05:40:07.523Z,22.95
2018-04-30T05:41:13.708Z,21.60
2018-04-30T05:42:19.945Z,21.95
2018-04-30T05:43:26.228Z,22.80
2018-04-30T05:44:32.317Z,23.27
2018-04-30T05:45:38.622Z,22.80
2018-04-30T05:46:44.600Z,22.00
2018-04-30T05:47:51.422Z,21.17
2018-04-30T05:48:57.714Z,21.42
2018-04-30T05:50:03.464Z,22.48
2018-04-30T05:51:09.687Z,20.85
2018-04-30T05:52:15.911Z,20.37
2018-04-30T05:53:21.889Z,20.27
2018-04-30T05:54:28.114Z,20.50
2018-04-30T05:55:35.465Z,19.33
2018-04-30T05:56:41.652Z,19.75
2018-04-30T05:57:47.997Z,18.95
2018-04-30T05:58:54.070Z,20.60
2018-04-30T06:00:00.327Z,19.50
2018-04-30T06:01:06.121Z,19.23
2018-04-30T06:02:12.284Z,19.35
2018-04-30T06:03:18.559Z,20.60
2018-04-30T06:04:29.106Z,20.58
2018-04-30T06:05:37.762Z,20.12
2018-04-30T06:06:45.981Z,20.37
2018-04-30T06:07:52.873Z,21.70
2018-04-30T06:08:59.487Z,20.73
2018-04-30T06:10:05.389Z,19.80
2018-04-30T06:11:13.883Z,19.08
2018-04-30T06:12:21.478Z,19.42
2018-04-30T06:13:30.464Z,21.25
2018-04-30T06:14:37.160Z,19.42
2018-04-30T06:15:44.843Z,17.33
2018-04-30T06:16:52.229Z,18.55
2018-04-30T06:17:58.800Z,18.12
2018-04-30T06:19:05.804Z,18.95
2018-04-30T06:20:12.814Z,17.60
2018-04-30T06:21:20.212Z,16.42
2018-04-30T06:22:27.264Z,17.73
2018-04-30T06:23:33.786Z,16.17
2018-04-30T06:24:40.567Z,16.83
2018-04-30T06:25:48.288Z,16.20
2018-04-30T06:26:54.319Z,14.93
2018-04-30T06:28:01.580Z,15.43
2018-04-30T06:29:07.512Z,15.48
2018-04-30T06:30:14.764Z,16.02
2018-04-30T06:31:22.263Z,13.48
2018-04-30T06:32:30.126Z,13.25
2018-04-30T06:33:37.904Z,13.13
2018-04-30T06:34:44.288Z,12.75
2018-04-30T06:35:52.837Z,13.25
2018-04-30T06:37:00.080Z,12.75
2018-04-30T06:38:07.217Z,12.60
2018-04-30T06:39:13.630Z,13.10
2018-04-30T06:40:19.785Z,12.20
2018-04-30T06:41:26.248Z,12.00
2018-04-30T06:42:32.766Z,11.82
2018-04-30T06:43:39.401Z,11.55
2018-04-30T06:44:47.849Z,11.02
2018-04-30T06:45:54.425Z,9.90
2018-04-30T06:47:01.235Z,9.10
2018-04-30T06:48:08.315Z,10.50
2018-04-30T06:49:16.032Z,9.77
2018-04-30T06:50:22.695Z,8.68
2018-04-30T06:51:29.332Z,8.55
2018-04-30T06:52:37.409Z,9.63
2018-04-30T06:53:44.283Z,9.27
2018-04-30T06:54:50.926Z,8.70
2018-04-30T06:56:05.962Z,7.85
2018-04-30T06:57:13.445Z,9.25
2018-04-30T06:58:20.403Z,8.05
2018-04-30T06:59:26.393Z,9.50
2018-04-30T07:00:32.537Z,8.65
2018-04-30T07:01:39.179Z,9.40
2018-04-30T07:02:45.134Z,8.68
2018-04-30T07:03:51.126Z,8.80
2018-04-30T07:04:57.039Z,7.22
2018-04-30T07:06:03.155Z,6.82
2018-04-30T07:07:09.179Z,5.00
2018-04-30T07:08:17.923Z,4.75
2018-04-30T07:09:24.214Z,5.37
2018-04-30T07:10:29.982Z,5.45
2018-04-30T07:11:35.730Z,4.53
2018-04-30T07:12:42.154Z,3.53
2018-04-30T07:13:48.416Z,2.90
2018-04-30T07:14:54.369Z,3.15
2018-04-30T07:16:00.031Z,3.08
2018-04-30T07:17:05.835Z,2.92
2018-04-30T07:18:11.739Z,2.65
2018-04-30T07:19:18.352Z,2.65
2018-04-30T07:20:24.327Z,2.90
2018-04-30T07:21:30.431Z,2.50
2018-04-30T07:22:36.392Z,2.30
2018-04-30T07:23:42.296Z,2.85
2018-04-30T07:24:48.607Z,2.40
2018-04-30T07:25:54.794Z,2.33
2018-04-30T07:27:01.166Z,2.78
2018-04-30T07:28:07.584Z,2.35
2018-04-30T07:29:14.891Z,2.62
2018-04-30T07:30:20.820Z,2.42
2018-04-30T07:31:27.341Z,2.17
2018-04-30T07:32:33.583Z,2.83
2018-04-30T07:33:39.597Z,3.58
2018-04-30T07:34:45.543Z,2.22
2018-04-30T07:35:51.639Z,2.40
2018-04-30T07:36:57.788Z,2.55
2018-04-30T07:38:03.738Z,2.22
2018-04-30T07:39:09.869Z,2.50
2018-04-30T07:40:16.258Z,2.67
2018-04-30T07:41:22.269Z,2.47
2018-04-30T07:42:28.230Z,2.20
2018-04-30T07:43:35.457Z,2.10
2018-04-30T07:44:42.554Z,2.47
2018-04-30T07:45:49.392Z,2.20
2018-04-30T07:46:55.394Z,2.47
2018-04-30T07:48:02.131Z,2.10
2018-04-30T07:49:08.430Z,2.22
2018-04-30T07:50:15.598Z,2.53
2018-04-30T07:51:21.516Z,2.35
2018-04-30T07:52:27.434Z,2.83
2018-04-30T07:53:33.459Z,2.70
2018-04-30T07:54:39.609Z,2.87
2018-04-30T07:55:45.756Z,2.70
2018-04-30T07:56:51.804Z,2.97
2018-04-30T07:57:58.112Z,2.80
2018-04-30T07:59:03.765Z,3.42
2018-04-30T08:00:11.336Z,3.25
2018-04-30T08:01:17.613Z,3.97
2018-04-30T08:02:23.987Z,3.12
2018-04-30T08:03:30.043Z,3.50
2018-04-30T08:04:36.026Z,3.30
2018-04-30T08:05:41.958Z,3.00
2018-04-30T08:06:47.369Z,2.50
2018-04-30T08:07:53.683Z,2.62
2018-04-30T08:08:59.651Z,2.50
2018-04-30T08:10:05.951Z,2.25
2018-04-30T08:11:11.851Z,2.28
2018-04-30T08:12:18.127Z,1.62
2018-04-30T08:13:24.091Z,2.05
2018-04-30T08:14:30.079Z,1.87
2018-04-30T08:15:35.991Z,1.55
2018-04-30T08:16:42.207Z,2.20
2018-04-30T08:17:49.105Z,2.00
2018-04-30T08:18:55.039Z,2.25
2018-04-30T08:20:01.092Z,1.90
2018-04-30T08:21:07.257Z,2.15
2018-04-30T08:22:13.248Z,1.90
2018-04-30T08:23:19.282Z,1.95
2018-04-30T08:24:25.358Z,1.95
2018-04-30T08:25:31.549Z,2.10
2018-04-30T08:26:37.776Z,2.10
2018-04-30T08:27:44.027Z,1.80
2018-04-30T08:28:50.582Z,1.62
2018-04-30T08:29:56.816Z,1.85
2018-04-30T08:31:02.822Z,1.70
2018-04-30T08:32:10.371Z,1.85
2018-04-30T08:33:16.546Z,1.80
2018-04-30T08:34:22.460Z,1.92
2018-04-30T08:35:28.394Z,1.80
2018-04-30T08:36:35.585Z,1.95
2018-04-30T08:37:42.306Z,2.05
2018-04-30T08:38:48.235Z,1.95
2018-04-30T08:39:54.458Z,1.95
2018-04-30T08:41:00.604Z,1.10
2018-04-30T08:42:06.220Z,1.98
2018-04-30T08:43:12.279Z,1.55
2018-04-30T08:44:18.460Z,1.17
2018-04-30T08:45:24.366Z,1.40
2018-04-30T08:46:30.572Z,1.65
2018-04-30T08:47:36.684Z,1.20
2018-04-30T08:48:42.981Z,1.48
2018-04-30T08:49:49.229Z,1.50
2018-04-30T08:50:56.263Z,1.27
2018-04-30T08:52:02.316Z,1.33
2018-04-30T08:53:10.181Z,1.30
2018-04-30T08:54:16.386Z,1.17
2018-04-30T08:55:22.527Z,1.25
2018-04-30T08:56:28.824Z,1.35
2018-04-30T08:57:35.737Z,1.00
2018-04-30T08:58:41.764Z,1.52
2018-04-30T08:59:47.995Z,1.20
2018-04-30T09:00:54.035Z,1.33
2018-04-30T09:02:00.619Z,1.52
2018-04-30T09:03:06.850Z,0.88
2018-04-30T09:04:12.796Z,1.42
2018-04-30T09:05:19.293Z,1.30
2018-04-30T09:06:25.266Z,8.98
2018-04-30T09:07:32.035Z,1.77
2018-04-30T09:08:38.291Z,1.50
2018-04-30T09:09:44.615Z,1.60
2018-04-30T09:10:50.858Z,1.40
2018-04-30T09:11:57.077Z,1.23
2018-04-30T09:13:03.809Z,1.42
2018-04-30T09:14:10.600Z,1.80
2018-04-30T09:15:16.471Z,1.80
2018-04-30T09:16:22.452Z,1.33
2018-04-30T09:17:29.036Z,2.03
2018-04-30T09:18:35.286Z,1.45
2018-04-30T09:19:41.424Z,1.27
2018-04-30T09:20:47.692Z,1.40
2018-04-30T09:21:53.866Z,1.30
2018-04-30T09:22:59.884Z,8.27
2018-04-30T09:24:06.019Z,1.50
2018-04-30T09:25:12.561Z,1.50
2018-04-30T09:26:18.462Z,1.40
2018-04-30T09:27:24.412Z,0.60
2018-04-30T09:28:32.008Z,0.90
2018-04-30T09:29:38.783Z,0.80
2018-04-30T09:30:44.988Z,0.65
2018-04-30T09:31:51.615Z,0.75
2018-04-30T09:32:58.531Z,0.75
2018-04-30T09:34:04.765Z,0.70
2018-04-30T09:35:10.851Z,0.73
2018-04-30T09:36:16.760Z,0.70
2018-04-30T09:37:22.739Z,0.52
2018-04-30T09:38:28.667Z,0.75
2018-04-30T09:39:34.896Z,20.83
2018-04-30T09:40:41.315Z,27.00
2018-04-30T09:41:47.409Z,1.67
2018-04-30T09:42:54.083Z,0.88
2018-04-30T09:44:00.591Z,0.80
2018-04-30T09:45:06.176Z,1.17
2018-04-30T09:46:12.115Z,0.70
2018-04-30T09:47:18.039Z,0.75
2018-04-30T09:48:24.019Z,0.60
2018-04-30T09:49:30.808Z,0.70
2018-04-30T09:50:36.779Z,0.50
2018-04-30T09:51:42.793Z,0.55
2018-04-30T09:52:49.085Z,0.55
2018-04-30T09:53:55.421Z,0.65
2018-04-30T09:55:01.729Z,0.70
2018-04-30T09:56:07.715Z,0.70
2018-04-30T09:57:13.726Z,0.80
2018-04-30T09:58:19.759Z,0.60
2018-04-30T09:59:25.863Z,0.70
2018-04-30T10:00:33.057Z,0.60
2018-04-30T10:01:40.037Z,0.45
2018-04-30T10:02:46.724Z,0.73
2018-04-30T10:03:53.077Z,0.47
2018-04-30T10:05:00.059Z,0.85
2018-04-30T10:06:06.618Z,0.50
2018-04-30T10:07:12.639Z,0.55
2018-04-30T10:08:18.759Z,0.80
2018-04-30T10:09:24.807Z,0.70
2018-04-30T10:10:30.992Z,0.75
2018-04-30T10:11:37.080Z,0.40
2018-04-30T10:12:43.109Z,0.80
2018-04-30T10:13:49.322Z,0.60
2018-04-30T10:14:55.558Z,0.40
2018-04-30T10:16:02.396Z,0.73
2018-04-30T10:17:08.864Z,0.50
2018-04-30T10:18:14.978Z,0.60
2018-04-30T10:19:21.188Z,0.47
2018-04-30T10:20:27.295Z,0.60
2018-04-30T10:21:34.153Z,0.50
2018-04-30T10:22:40.308Z,0.40
2018-04-30T10:23:46.624Z,0.45
2018-04-30T10:24:52.756Z,0.60
2018-04-30T10:25:58.981Z,0.47
2018-04-30T10:27:05.235Z,0.50
2018-04-30T10:28:11.171Z,0.40
2018-04-30T10:29:17.086Z,0.50
2018-04-30T10:30:23.380Z,0.50
2018-04-30T10:31:29.583Z,0.60
2018-04-30T10:32:36.013Z,0.60
2018-04-30T10:33:42.340Z,0.50
2018-04-30T10:34:48.558Z,0.68
2018-04-30T10:35:54.466Z,0.40
2018-04-30T10:37:00.936Z,0.55
2018-04-30T10:38:07.239Z,0.60
2018-04-30T10:39:13.128Z,0.40
2018-04-30T10:40:19.399Z,0.70
2018-04-30T10:41:25.595Z,0.52
2018-04-30T10:42:31.768Z,0.90
2018-04-30T10:43:37.666Z,0.60
2018-04-30T10:44:44.109Z,0.40
2018-04-30T10:45:51.711Z,0.50
2018-04-30T10:46:58.803Z,0.50
2018-04-30T10:48:05.101Z,0.37
2018-04-30T10:49:12.497Z,0.77
2018-04-30T10:50:19.314Z,0.40
2018-04-30T10:51:26.232Z,0.40
2018-04-30T10:52:33.684Z,0.60
2018-04-30T10:53:40.925Z,0.47
2018-04-30T10:54:48.325Z,0.55
2018-04-30T10:55:54.565Z,0.40
2018-04-30T10:57:01.287Z,0.40
2018-04-30T10:58:07.713Z,0.43
2018-04-30T10:59:14.610Z,0.65
2018-04-30T11:00:21.757Z,0.40
2018-04-30T11:01:28.069Z,0.40
2018-04-30T11:02:35.766Z,0.52
2018-04-30T11:03:42.178Z,0.62
2018-04-30T11:04:49.376Z,0.40
2018-04-30T11:05:56.115Z,0.50
2018-04-30T11:07:02.852Z,0.40
2018-04-30T11:08:09.662Z,0.60
2018-04-30T11:09:16.147Z,0.70
2018-04-30T11:10:23.164Z,0.60
2018-04-30T11:11:29.335Z,0.90
2018-04-30T11:12:36.784Z,0.50
2018-04-30T11:13:43.479Z,0.50
2018-04-30T11:14:50.568Z,0.50
2018-04-30T11:15:56.630Z,0.45
2018-04-30T11:17:04.303Z,0.73
2018-04-30T11:18:11.520Z,0.40
2018-04-30T11:19:19.146Z,0.55
2018-04-30T11:20:26.276Z,0.30
2018-04-30T11:21:34.045Z,0.40
2018-04-30T11:22:40.765Z,0.50
2018-04-30T11:23:47.568Z,0.52
2018-04-30T11:24:54.899Z,0.62
2018-04-30T11:26:01.529Z,0.50
2018-04-30T11:27:09.108Z,0.40
2018-04-30T11:28:15.597Z,0.70
2018-04-30T11:29:23.468Z,0.55
2018-04-30T11:30:30.668Z,0.45
2018-04-30T11:31:36.963Z,0.73
2018-04-30T11:32:43.018Z,0.88
2018-04-30T11:33:49.190Z,0.40
2018-04-30T11:34:56.567Z,0.68
2018-04-30T11:36:03.216Z,0.40
2018-04-30T11:37:09.974Z,0.40
2018-04-30T11:38:17.189Z,0.47
2018-04-30T11:39:23.385Z,0.50
2018-04-30T11:40:29.667Z,0.50
2018-04-30T11:41:37.404Z,0.40
2018-04-30T11:42:44.131Z,0.50
2018-04-30T11:43:50.333Z,0.40
2018-04-30T11:44:57.170Z,0.50
2018-04-30T11:46:04.188Z,0.60
2018-04-30T11:47:10.484Z,0.77
2018-04-30T11:48:18.498Z,0.60
2018-04-30T11:49:24.610Z,0.50
2018-04-30T11:50:30.969Z,0.40
2018-04-30T11:51:37.434Z,0.50
2018-04-30T11:52:43.571Z,0.45
2018-04-30T11:53:50.415Z,0.50
2018-04-30T11:54:56.522Z,0.50
2018-04-30T11:56:03.760Z,0.40
2018-04-30T11:57:10.071Z,0.50
2018-04-30T11:58:17.607Z,0.70
2018-04-30T11:59:24.187Z,0.70
2018-04-30T12:00:30.904Z,0.50
2018-04-30T12:01:39.457Z,0.60
2018-04-30T12:02:45.806Z,0.57
2018-04-30T12:03:52.323Z,0.40
2018-04-30T12:04:59.949Z,0.60
2018-04-30T12:06:07.752Z,0.52
2018-04-30T12:07:14.622Z,0.70
2018-04-30T12:08:21.138Z,0.40
2018-04-30T12:09:27.575Z,0.50
2018-04-30T12:10:34.202Z,0.60
2018-04-30T12:11:41.537Z,0.70
2018-04-30T12:12:47.847Z,0.65
2018-04-30T12:13:54.269Z,0.55
2018-04-30T12:15:00.675Z,0.57
2018-04-30T12:16:07.766Z,0.55
2018-04-30T12:17:14.637Z,0.50
2018-04-30T12:18:21.162Z,0.70
2018-04-30T12:19:27.801Z,0.50
2018-04-30T12:20:34.330Z,0.60
2018-04-30T12:21:40.542Z,0.60
2018-04-30T12:22:53.428Z,0.80
2018-04-30T12:24:01.478Z,0.57
2018-04-30T12:25:07.440Z,0.70
2018-04-30T12:26:15.025Z,0.50
2018-04-30T12:27:20.253Z,0.50
2018-04-30T12:28:28.761Z,0.50
2018-04-30T12:29:34.732Z,0.60
2018-04-30T12:30:40.383Z,0.50
2018-04-30T12:31:46.313Z,0.70
2018-04-30T12:32:52.939Z,0.60
2018-04-30T12:33:59.931Z,0.70
2018-04-30T12:35:06.295Z,0.57
2018-04-30T12:36:12.927Z,0.65
2018-04-30T12:37:18.924Z,0.60
2018-04-30T12:38:25.048Z,0.55
2018-04-30T12:39:31.005Z,0.82
2018-04-30T12:40:37.125Z,0.60
2018-04-30T12:41:44.848Z,0.50
2018-04-30T12:42:50.887Z,0.62
2018-04-30T12:44:03.441Z,0.70
2018-04-30T12:45:09.374Z,0.90
2018-04-30T12:46:15.723Z,0.60
2018-04-30T12:47:21.679Z,0.50
2018-04-30T12:48:27.925Z,0.57
2018-04-30T12:49:34.189Z,0.70
2018-04-30T12:50:40.416Z,0.68
2018-04-30T12:51:46.844Z,0.60
2018-04-30T12:52:53.622Z,0.47
2018-04-30T12:54:02.968Z,0.60
2018-04-30T12:55:10.216Z,0.50
2018-04-30T12:56:16.149Z,0.50
2018-04-30T12:57:22.169Z,0.45
2018-04-30T12:58:28.458Z,0.70
2018-04-30T12:59:34.702Z,0.60
2018-04-30T13:00:41.011Z,0.70
2018-04-30T13:01:47.243Z,0.88
2018-04-30T13:02:53.179Z,0.60
2018-04-30T13:03:59.125Z,0.75
2018-04-30T13:05:06.661Z,0.85
2018-04-30T13:06:12.536Z,0.80
2018-04-30T13:07:18.573Z,0.65
2018-04-30T13:08:24.890Z,0.57
2018-04-30T13:09:30.846Z,0.60
2018-04-30T13:10:36.742Z,0.70
2018-04-30T13:11:42.900Z,0.60
2018-04-30T13:12:49.182Z,0.50
2018-04-30T13:13:55.069Z,0.68
2018-04-30T13:15:01.121Z,0.65
2018-04-30T13:16:07.299Z,0.60
2018-04-30T13:17:14.284Z,0.50
2018-04-30T13:18:20.563Z,0.50
2018-04-30T13:19:26.542Z,0.57
2018-04-30T13:20:32.519Z,0.52
2018-04-30T13:21:38.574Z,0.62
2018-04-30T13:22:44.580Z,0.50
2018-04-30T13:23:50.678Z,0.50
2018-04-30T13:24:56.768Z,0.60
2018-04-30T13:26:07.002Z,0.55
2018-04-30T13:27:18.298Z,0.47
2018-04-30T13:28:24.199Z,0.70
2018-04-30T13:29:30.432Z,0.65
2018-04-30T13:30:36.435Z,0.70
2018-04-30T13:31:42.650Z,0.57
2018-04-30T13:32:49.739Z,0.50
2018-04-30T13:33:55.970Z,0.70
2018-04-30T13:35:01.968Z,0.80
2018-04-30T13:36:08.010Z,0.80
2018-04-30T13:37:14.044Z,0.70
2018-04-30T13:38:20.418Z,0.70
2018-04-30T13:39:26.506Z,0.70
2018-04-30T13:40:32.523Z,0.52
2018-04-30T13:41:38.550Z,0.70
2018-04-30T13:42:44.623Z,0.60
2018-04-30T13:43:50.714Z,0.65
2018-04-30T13:44:56.632Z,0.70
2018-04-30T13:46:02.615Z,0.60
2018-04-30T13:47:10.498Z,0.73
2018-04-30T13:48:16.934Z,0.43
2018-04-30T13:49:23.493Z,0.70
2018-04-30T13:50:29.408Z,0.60
2018-04-30T13:51:35.455Z,0.70
2018-04-30T13:52:41.976Z,0.60
2018-04-30T13:53:48.044Z,0.80
2018-04-30T13:54:54.021Z,0.50
2018-04-30T13:55:59.960Z,0.62
2018-04-30T13:57:05.954Z,0.57
2018-04-30T13:58:12.069Z,0.68
2018-04-30T13:59:18.275Z,0.62
2018-04-30T14:00:24.639Z,0.50
2018-04-30T14:01:30.694Z,0.70
2018-04-30T14:02:36.700Z,0.70
2018-04-30T14:03:42.788Z,0.90
2018-04-30T14:04:48.683Z,0.60
2018-04-30T14:05:55.525Z,0.70
2018-04-30T14:07:01.748Z,0.60
2018-04-30T14:08:07.771Z,0.68
2018-04-30T14:09:14.443Z,0.50
2018-04-30T14:10:20.916Z,0.47
2018-04-30T14:11:26.986Z,0.88
2018-04-30T14:12:32.991Z,0.60
2018-04-30T14:13:39.216Z,0.80
2018-04-30T14:14:45.293Z,0.70
2018-04-30T14:15:51.222Z,0.52
2018-04-30T14:16:57.094Z,0.55
2018-04-30T14:18:03.135Z,0.60
2018-04-30T14:19:09.127Z,0.70
2018-04-30T14:20:15.118Z,0.60
2018-04-30T14:21:21.145Z,0.80
2018-04-30T14:22:27.273Z,0.55
2018-04-30T14:23:33.279Z,0.60
2018-04-30T14:24:40.148Z,0.70
2018-04-30T14:25:46.338Z,0.70
2018-04-30T14:26:52.314Z,0.60
2018-04-30T14:27:58.622Z,0.73
2018-04-30T14:29:04.834Z,0.50
2018-04-30T14:30:18.001Z,0.50
2018-04-30T14:31:27.899Z,0.57
2018-04-30T14:32:33.959Z,0.70
2018-04-30T14:33:39.892Z,0.60
2018-04-30T14:34:45.890Z,0.70
2018-04-30T14:35:51.810Z,0.50